sensor_id;sensor_type;location;lat;lon;timestamp;pressure;altitude;pressure_sealevel;temperature;humidity
46291;BME280;32023;44.444;26.006;2024-01-06T00:01:05;100252.69;;;6.84;72.82
46291;BME280;32023;44.444;26.006;2024-01-06T00:03:31;100252.81;;;6.89;72.99
46291;BME280;32023;44.444;26.006;2024-01-06T00:05:58;100250.69;;;6.91;73.10
46291;BME280;32023;44.444;26.006;2024-01-06T00:08:25;100266.63;;;6.94;72.89
46291;BME280;32023;44.444;26.006;2024-01-06T00:10:52;100254.47;;;6.90;72.96
46291;BME280;32023;44.444;26.006;2024-01-06T00:13:29;100258.06;;;6.90;73.07
46291;BME280;32023;44.444;26.006;2024-01-06T00:15:55;100260.31;;;6.93;72.89
46291;BME280;32023;44.444;26.006;2024-01-06T00:18:24;100258.97;;;6.96;73.29
46291;BME280;32023;44.444;26.006;2024-01-06T00:20:54;100253.03;;;6.99;73.19
46291;BME280;32023;44.444;26.006;2024-01-06T00:23:20;100251.75;;;7.01;72.98
46291;BME280;32023;44.444;26.006;2024-01-06T00:25:49;100255.41;;;7.07;73.28
46291;BME280;32023;44.444;26.006;2024-01-06T00:28:17;100249.09;;;7.06;72.84
46291;BME280;32023;44.444;26.006;2024-01-06T00:30:45;100249.94;;;7.07;73.35
46291;BME280;32023;44.444;26.006;2024-01-06T00:33:17;100256.50;;;7.06;73.34
46291;BME280;32023;44.444;26.006;2024-01-06T00:35:44;100261.38;;;7.04;73.23
46291;BME280;32023;44.444;26.006;2024-01-06T00:38:14;100264.94;;;7.04;73.28
46291;BME280;32023;44.444;26.006;2024-01-06T00:40:54;100262.56;;;7.08;73.39
46291;BME280;32023;44.444;26.006;2024-01-06T00:43:21;100262.56;;;7.08;73.43
46291;BME280;32023;44.444;26.006;2024-01-06T00:45:47;100260.16;;;7.11;73.39
46291;BME280;32023;44.444;26.006;2024-01-06T00:48:14;100251.97;;;7.11;73.12
46291;BME280;32023;44.444;26.006;2024-01-06T00:50:40;100255.53;;;7.12;73.22
46291;BME280;32023;44.444;26.006;2024-01-06T00:53:06;100259.94;;;7.13;73.22
46291;BME280;32023;44.444;26.006;2024-01-06T00:55:33;100257.44;;;7.11;73.37
46291;BME280;32023;44.444;26.006;2024-01-06T00:57:59;100252.44;;;7.08;73.33
46291;BME280;32023;44.444;26.006;2024-01-06T01:00:26;100261.97;;;7.06;73.49
46291;BME280;32023;44.444;26.006;2024-01-06T01:02:53;100259.25;;;7.06;73.56
46291;BME280;32023;44.444;26.006;2024-01-06T01:05:19;100249.94;;;7.07;73.71
46291;BME280;32023;44.444;26.006;2024-01-06T01:07:46;100231.03;;;7.05;73.44
46291;BME280;32023;44.444;26.006;2024-01-06T01:10:12;100241.63;;;7.02;73.67
46291;BME280;32023;44.444;26.006;2024-01-06T01:12:39;100249.00;;;7.01;73.60
46291;BME280;32023;44.444;26.006;2024-01-06T01:15:07;100238.88;;;7.02;73.58
46291;BME280;32023;44.444;26.006;2024-01-06T01:17:34;100229.00;;;7.01;73.61
46291;BME280;32023;44.444;26.006;2024-01-06T01:20:00;100227.81;;;6.97;73.24
46291;BME280;32023;44.444;26.006;2024-01-06T01:22:27;100235.44;;;6.95;73.25
46291;BME280;32023;44.444;26.006;2024-01-06T01:24:56;100243.88;;;6.93;73.28
46291;BME280;32023;44.444;26.006;2024-01-06T01:27:22;100240.78;;;6.90;73.25
46291;BME280;32023;44.444;26.006;2024-01-06T01:29:49;100226.50;;;6.88;72.89
46291;BME280;32023;44.444;26.006;2024-01-06T01:32:19;100222.47;;;6.78;72.81
46291;BME280;32023;44.444;26.006;2024-01-06T01:34:45;100224.03;;;6.74;72.88
46291;BME280;32023;44.444;26.006;2024-01-06T01:37:11;100214.63;;;6.70;73.00
46291;BME280;32023;44.444;26.006;2024-01-06T01:39:38;100216.28;;;6.71;72.96
46291;BME280;32023;44.444;26.006;2024-01-06T01:42:04;100213.19;;;6.68;73.08
46291;BME280;32023;44.444;26.006;2024-01-06T01:44:31;100220.09;;;6.70;72.94
46291;BME280;32023;44.444;26.006;2024-01-06T01:46:58;100219.88;;;6.72;73.03
46291;BME280;32023;44.444;26.006;2024-01-06T01:49:25;100206.41;;;6.70;73.28
46291;BME280;32023;44.444;26.006;2024-01-06T01:51:51;100196.31;;;6.71;73.13
46291;BME280;32023;44.444;26.006;2024-01-06T01:54:18;100204.75;;;6.69;73.16
46291;BME280;32023;44.444;26.006;2024-01-06T01:56:45;100192.13;;;6.68;73.15
46291;BME280;32023;44.444;26.006;2024-01-06T01:59:13;100202.63;;;6.71;73.41
46291;BME280;32023;44.444;26.006;2024-01-06T02:01:42;100200.81;;;6.77;73.27
46291;BME280;32023;44.444;26.006;2024-01-06T02:04:09;100192.38;;;6.78;73.28
46291;BME280;32023;44.444;26.006;2024-01-06T02:06:36;100189.16;;;6.82;73.22
46291;BME280;32023;44.444;26.006;2024-01-06T02:09:02;100185.94;;;6.85;73.32
46291;BME280;32023;44.444;26.006;2024-01-06T02:11:28;100187.59;;;6.86;73.17
46291;BME280;32023;44.444;26.006;2024-01-06T02:13:55;100179.97;;;6.88;72.92
46291;BME280;32023;44.444;26.006;2024-01-06T02:16:22;100182.25;;;6.91;72.83
46291;BME280;32023;44.444;26.006;2024-01-06T02:18:49;100168.78;;;6.89;72.48
46291;BME280;32023;44.444;26.006;2024-01-06T02:21:16;100162.47;;;6.89;72.81
46291;BME280;32023;44.444;26.006;2024-01-06T02:23:43;100165.22;;;6.89;72.63
46291;BME280;32023;44.444;26.006;2024-01-06T02:26:10;100154.53;;;6.87;72.39
46291;BME280;32023;44.444;26.006;2024-01-06T02:28:37;100152.59;;;6.88;72.24
46291;BME280;32023;44.444;26.006;2024-01-06T02:31:03;100154.28;;;6.89;72.38
46291;BME280;32023;44.444;26.006;2024-01-06T02:33:30;100149.88;;;6.88;71.96
46291;BME280;32023;44.444;26.006;2024-01-06T02:35:56;100149.63;;;6.89;71.97
46291;BME280;32023;44.444;26.006;2024-01-06T02:38:26;100140.38;;;6.90;71.74
46291;BME280;32023;44.444;26.006;2024-01-06T02:40:53;100145.00;;;6.90;71.57
46291;BME280;32023;44.444;26.006;2024-01-06T02:43:20;100138.34;;;6.86;71.79
46291;BME280;32023;44.444;26.006;2024-01-06T02:45:46;100140.84;;;6.87;71.58
46291;BME280;32023;44.444;26.006;2024-01-06T02:48:12;100133.00;;;6.91;71.41
46291;BME280;32023;44.444;26.006;2024-01-06T02:50:39;100123.94;;;6.90;70.87
46291;BME280;32023;44.444;26.006;2024-01-06T02:53:05;100117.63;;;6.90;70.53
46291;BME280;32023;44.444;26.006;2024-01-06T02:55:31;100112.16;;;6.90;70.38
46291;BME280;32023;44.444;26.006;2024-01-06T02:57:58;100107.75;;;6.89;69.89
46291;BME280;32023;44.444;26.006;2024-01-06T03:00:25;100109.66;;;6.88;69.93
46291;BME280;32023;44.444;26.006;2024-01-06T03:02:51;100103.34;;;6.88;69.61
46291;BME280;32023;44.444;26.006;2024-01-06T03:05:19;100095.38;;;6.86;69.40
46291;BME280;32023;44.444;26.006;2024-01-06T03:07:45;100092.38;;;6.88;69.06
46291;BME280;32023;44.444;26.006;2024-01-06T03:10:12;100091.59;;;6.87;68.58
46291;BME280;32023;44.444;26.006;2024-01-06T03:12:38;100097.06;;;6.87;68.11
46291;BME280;32023;44.444;26.006;2024-01-06T03:15:05;100100.03;;;6.86;67.91
46291;BME280;32023;44.444;26.006;2024-01-06T03:17:32;100092.88;;;6.85;68.07
46291;BME280;32023;44.444;26.006;2024-01-06T03:20:00;100093.94;;;6.84;67.47
46291;BME280;32023;44.444;26.006;2024-01-06T03:22:26;100086.84;;;6.83;67.55
46291;BME280;32023;44.444;26.006;2024-01-06T03:24:52;100078.63;;;6.83;67.35
46291;BME280;32023;44.444;26.006;2024-01-06T03:27:18;100085.16;;;6.82;66.87
46291;BME280;32023;44.444;26.006;2024-01-06T03:29:45;100073.38;;;6.81;66.85
46291;BME280;32023;44.444;26.006;2024-01-06T03:32:11;100075.78;;;6.77;66.38
46291;BME280;32023;44.444;26.006;2024-01-06T03:34:38;100077.94;;;6.75;66.42
46291;BME280;32023;44.444;26.006;2024-01-06T03:37:04;100076.75;;;6.71;66.36
46291;BME280;32023;44.444;26.006;2024-01-06T03:39:31;100080.06;;;6.73;66.19
46291;BME280;32023;44.444;26.006;2024-01-06T03:41:57;100084.22;;;6.76;66.02
46291;BME280;32023;44.444;26.006;2024-01-06T03:44:23;100079.22;;;6.73;65.51
46291;BME280;32023;44.444;26.006;2024-01-06T03:46:50;100089.09;;;6.74;65.45
46291;BME280;32023;44.444;26.006;2024-01-06T03:49:19;100092.06;;;6.72;65.20
46291;BME280;32023;44.444;26.006;2024-01-06T03:51:47;100094.22;;;6.70;65.25
46291;BME280;32023;44.444;26.006;2024-01-06T03:54:13;100089.59;;;6.71;64.96
46291;BME280;32023;44.444;26.006;2024-01-06T03:56:40;100091.00;;;6.73;64.78
46291;BME280;32023;44.444;26.006;2024-01-06T03:59:06;100094.00;;;6.72;64.94
46291;BME280;32023;44.444;26.006;2024-01-06T04:01:34;100092.69;;;6.74;64.59
46291;BME280;32023;44.444;26.006;2024-01-06T04:04:07;100094.34;;;6.75;64.59
46291;BME280;32023;44.444;26.006;2024-01-06T04:06:37;100091.00;;;6.73;64.31
46291;BME280;32023;44.444;26.006;2024-01-06T04:09:04;100091.25;;;6.72;64.17
46291;BME280;32023;44.444;26.006;2024-01-06T04:11:31;100095.28;;;6.69;64.11
46291;BME280;32023;44.444;26.006;2024-01-06T04:13:57;100099.59;;;6.65;64.43
46291;BME280;32023;44.444;26.006;2024-01-06T04:16:26;100099.00;;;6.63;64.39
46291;BME280;32023;44.444;26.006;2024-01-06T04:18:53;100089.38;;;6.61;64.59
46291;BME280;32023;44.444;26.006;2024-01-06T04:21:22;100087.47;;;6.61;64.11
46291;BME280;32023;44.444;26.006;2024-01-06T04:23:56;100077.00;;;6.58;63.97
46291;BME280;32023;44.444;26.006;2024-01-06T04:26:29;100078.91;;;6.58;64.45
46291;BME280;32023;44.444;26.006;2024-01-06T04:32:05;100086.75;;;6.54;64.04
46291;BME280;32023;44.444;26.006;2024-01-06T04:34:33;100093.31;;;6.53;63.92
46291;BME280;32023;44.444;26.006;2024-01-06T04:36:59;100090.59;;;6.53;63.92
46291;BME280;32023;44.444;26.006;2024-01-06T04:39:26;100094.38;;;6.52;63.57
46291;BME280;32023;44.444;26.006;2024-01-06T04:41:52;100101.75;;;6.52;63.50
46291;BME280;32023;44.444;26.006;2024-01-06T04:44:21;100100.69;;;6.53;63.74
46291;BME280;32023;44.444;26.006;2024-01-06T04:46:49;100111.28;;;6.49;63.33
46291;BME280;32023;44.444;26.006;2024-01-06T04:49:17;100106.25;;;6.46;63.64
46291;BME280;32023;44.444;26.006;2024-01-06T04:51:43;100092.50;;;6.41;63.37
46291;BME280;32023;44.444;26.006;2024-01-06T04:54:10;100099.25;;;6.39;63.84
46291;BME280;32023;44.444;26.006;2024-01-06T04:56:46;100092.59;;;6.35;63.66
46291;BME280;32023;44.444;26.006;2024-01-06T04:59:13;100086.31;;;6.34;63.88
46291;BME280;32023;44.444;26.006;2024-01-06T05:01:40;100085.72;;;6.32;64.03
46291;BME280;32023;44.444;26.006;2024-01-06T05:04:09;100085.13;;;6.30;63.62
46291;BME280;32023;44.444;26.006;2024-01-06T05:06:35;100085.97;;;6.31;63.87
46291;BME280;32023;44.444;26.006;2024-01-06T05:09:01;100086.78;;;6.31;63.57
46291;BME280;32023;44.444;26.006;2024-01-06T05:11:28;100073.09;;;6.31;63.12
46291;BME280;32023;44.444;26.006;2024-01-06T05:13:56;100071.69;;;6.28;63.06
46291;BME280;32023;44.444;26.006;2024-01-06T05:16:23;100069.66;;;6.24;63.07
46291;BME280;32023;44.444;26.006;2024-01-06T05:18:49;100064.81;;;6.26;63.23
46291;BME280;32023;44.444;26.006;2024-01-06T05:21:17;100074.66;;;6.27;62.72
46291;BME280;32023;44.444;26.006;2024-01-06T05:23:48;100066.94;;;6.24;62.92
46291;BME280;32023;44.444;26.006;2024-01-06T05:26:14;100067.19;;;6.22;62.88
46291;BME280;32023;44.444;26.006;2024-01-06T05:28:41;100071.81;;;6.22;62.67
46291;BME280;32023;44.444;26.006;2024-01-06T05:31:22;100067.66;;;6.19;62.81
46291;BME280;32023;44.444;26.006;2024-01-06T05:33:49;100068.47;;;6.20;62.55
46291;BME280;32023;44.444;26.006;2024-01-06T05:36:19;100073.38;;;6.18;62.52
46291;BME280;32023;44.444;26.006;2024-01-06T05:38:53;100063.50;;;6.17;62.84
46291;BME280;32023;44.444;26.006;2024-01-06T05:41:19;100063.97;;;6.14;62.62
46291;BME280;32023;44.444;26.006;2024-01-06T05:43:46;100065.88;;;6.13;62.72
46291;BME280;32023;44.444;26.006;2024-01-06T05:46:19;100074.06;;;6.13;63.07
46291;BME280;32023;44.444;26.006;2024-01-06T05:48:47;100067.78;;;6.13;62.83
46291;BME280;32023;44.444;26.006;2024-01-06T05:51:13;100066.09;;;6.12;63.05
46291;BME280;32023;44.444;26.006;2024-01-06T05:53:40;100063.38;;;6.12;62.98
46291;BME280;32023;44.444;26.006;2024-01-06T05:56:08;100069.94;;;6.11;63.13
46291;BME280;32023;44.444;26.006;2024-01-06T05:58:36;100060.63;;;6.12;62.96
46291;BME280;32023;44.444;26.006;2024-01-06T06:01:03;100063.13;;;6.13;62.86
46291;BME280;32023;44.444;26.006;2024-01-06T06:03:29;100054.72;;;6.15;63.18
46291;BME280;32023;44.444;26.006;2024-01-06T06:05:58;100059.09;;;6.16;63.07
46291;BME280;32023;44.444;26.006;2024-01-06T06:08:24;100055.56;;;6.15;62.83
46291;BME280;32023;44.444;26.006;2024-01-06T06:10:51;100053.03;;;6.14;62.73
46291;BME280;32023;44.444;26.006;2024-01-06T06:13:37;100060.41;;;6.13;62.96
46291;BME280;32023;44.444;26.006;2024-01-06T06:16:04;100067.78;;;6.13;62.94
46291;BME280;32023;44.444;26.006;2024-01-06T06:18:31;100069.66;;;6.12;62.63
46291;BME280;32023;44.444;26.006;2024-01-06T06:20:59;100063.38;;;6.12;62.63
46291;BME280;32023;44.444;26.006;2024-01-06T06:23:26;100066.09;;;6.12;62.59
46291;BME280;32023;44.444;26.006;2024-01-06T06:25:54;100063.50;;;6.17;62.74
46291;BME280;32023;44.444;26.006;2024-01-06T06:28:22;100078.34;;;6.21;62.15
46291;BME280;32023;44.444;26.006;2024-01-06T06:30:48;100077.38;;;6.27;62.56
46291;BME280;32023;44.444;26.006;2024-01-06T06:33:15;100069.91;;;6.34;62.46
46291;BME280;32023;44.444;26.006;2024-01-06T06:35:43;100072.75;;;6.39;62.33
46291;BME280;32023;44.444;26.006;2024-01-06T06:38:09;100075.59;;;6.44;62.30
46291;BME280;32023;44.444;26.006;2024-01-06T06:40:36;100069.16;;;6.50;62.30
46291;BME280;32023;44.444;26.006;2024-01-06T06:43:05;100062.75;;;6.56;62.02
46291;BME280;32023;44.444;26.006;2024-01-06T06:45:31;100062.59;;;6.63;61.82
46291;BME280;32023;44.444;26.006;2024-01-06T06:48:00;100067.09;;;6.69;61.79
46291;BME280;32023;44.444;26.006;2024-01-06T06:50:26;100056.03;;;6.75;61.62
46291;BME280;32023;44.444;26.006;2024-01-06T06:52:53;100059.19;;;6.84;61.52
46291;BME280;32023;44.444;26.006;2024-01-06T06:55:19;100057.38;;;7.01;61.24
46291;BME280;32023;44.444;26.006;2024-01-06T06:57:46;100047.63;;;7.22;60.71
46291;BME280;32023;44.444;26.006;2024-01-06T07:00:12;100044.44;;;7.42;60.17
46291;BME280;32023;44.444;26.006;2024-01-06T07:02:39;100037.81;;;7.54;59.82
46291;BME280;32023;44.444;26.006;2024-01-06T07:05:08;100040.22;;;7.67;59.70
46291;BME280;32023;44.444;26.006;2024-01-06T07:07:34;100029.91;;;7.74;59.43
46291;BME280;32023;44.444;26.006;2024-01-06T07:10:04;100029.59;;;7.88;58.88
46291;BME280;32023;44.444;26.006;2024-01-06T07:12:31;100030.25;;;7.95;58.58
46291;BME280;32023;44.444;26.006;2024-01-06T07:15:33;99935.28;;;7.50;58.35
46291;BME280;32023;44.444;26.006;2024-01-06T07:17:59;100023.16;;;8.15;58.09
46291;BME280;32023;44.444;26.006;2024-01-06T07:20:33;100031.03;;;8.29;57.86
46291;BME280;32023;44.444;26.006;2024-01-06T07:22:59;100032.84;;;8.40;57.44
46291;BME280;32023;44.444;26.006;2024-01-06T07:25:25;100038.47;;;8.50;57.24
46291;BME280;32023;44.444;26.006;2024-01-06T07:27:55;100047.69;;;8.60;57.02
46291;BME280;32023;44.444;26.006;2024-01-06T07:30:21;100048.31;;;8.67;56.92
46291;BME280;32023;44.444;26.006;2024-01-06T07:32:48;100040.13;;;8.73;56.98
46291;BME280;32023;44.444;26.006;2024-01-06T07:35:43;100038.81;;;8.75;57.00
46291;BME280;32023;44.444;26.006;2024-01-06T07:38:14;100035.31;;;8.80;57.13
46291;BME280;32023;44.444;26.006;2024-01-06T07:40:43;100041.09;;;8.83;57.22
46291;BME280;32023;44.444;26.006;2024-01-06T07:43:10;100051.28;;;8.88;57.00
46291;BME280;32023;44.444;26.006;2024-01-06T07:45:42;100047.25;;;8.95;56.75
46291;BME280;32023;44.444;26.006;2024-01-06T07:48:09;100045.97;;;9.03;56.00
46291;BME280;32023;44.444;26.006;2024-01-06T07:50:35;100049.94;;;9.12;56.16
46291;BME280;32023;44.444;26.006;2024-01-06T07:53:01;100059.09;;;9.17;55.83
46291;BME280;32023;44.444;26.006;2024-01-06T07:55:29;100047.56;;;9.21;56.27
46291;BME280;32023;44.444;26.006;2024-01-06T07:57:55;100053.38;;;9.24;55.98
46291;BME280;32023;44.444;26.006;2024-01-06T08:00:22;100054.53;;;9.28;55.96
46291;BME280;32023;44.444;26.006;2024-01-06T08:02:48;100052.31;;;9.30;55.23
46291;BME280;32023;44.444;26.006;2024-01-06T08:05:14;100062.31;;;9.36;55.39
46291;BME280;32023;44.444;26.006;2024-01-06T08:07:41;100055.22;;;9.45;55.33
46291;BME280;32023;44.444;26.006;2024-01-06T08:10:07;100048.50;;;9.58;54.97
46291;BME280;32023;44.444;26.006;2024-01-06T08:12:35;100053.84;;;9.75;54.29
46291;BME280;32023;44.444;26.006;2024-01-06T08:15:02;100051.31;;;10.00;53.95
46291;BME280;32023;44.444;26.006;2024-01-06T08:17:29;100046.06;;;10.30;53.93
46291;BME280;32023;44.444;26.006;2024-01-06T08:19:55;100039.03;;;10.54;52.89
46291;BME280;32023;44.444;26.006;2024-01-06T08:22:22;100039.69;;;10.77;51.57
46291;BME280;32023;44.444;26.006;2024-01-06T08:24:48;100034.81;;;11.04;50.81
46291;BME280;32023;44.444;26.006;2024-01-06T08:27:14;100036.00;;;11.38;49.93
46291;BME280;32023;44.444;26.006;2024-01-06T08:29:46;100025.06;;;11.74;49.31
46291;BME280;32023;44.444;26.006;2024-01-06T08:32:15;100031.41;;;11.99;48.19
46291;BME280;32023;44.444;26.006;2024-01-06T08:34:42;100018.94;;;12.22;47.40
46291;BME280;32023;44.444;26.006;2024-01-06T08:37:09;100022.72;;;12.46;47.16
46291;BME280;32023;44.444;26.006;2024-01-06T08:39:35;100029.81;;;12.73;46.01
46291;BME280;32023;44.444;26.006;2024-01-06T08:42:01;99977.06;;;12.74;45.38
46291;BME280;32023;44.444;26.006;2024-01-06T08:44:28;100011.94;;;13.24;44.64
46291;BME280;32023;44.444;26.006;2024-01-06T08:46:54;100006.09;;;13.65;44.03
46291;BME280;32023;44.444;26.006;2024-01-06T08:49:23;99995.81;;;14.04;42.95
46291;BME280;32023;44.444;26.006;2024-01-06T08:51:56;99996.59;;;14.38;42.06
46291;BME280;32023;44.444;26.006;2024-01-06T08:54:22;99997.88;;;14.70;41.31
46291;BME280;32023;44.444;26.006;2024-01-06T08:56:49;99997.25;;;14.97;40.89
46291;BME280;32023;44.444;26.006;2024-01-06T08:59:15;99990.09;;;15.14;39.90
46291;BME280;32023;44.444;26.006;2024-01-06T09:01:46;99984.91;;;15.26;39.73
46291;BME280;32023;44.444;26.006;2024-01-06T09:04:14;99989.09;;;15.42;39.33
46291;BME280;32023;44.444;26.006;2024-01-06T09:06:41;99987.78;;;15.59;38.76
46291;BME280;32023;44.444;26.006;2024-01-06T09:09:08;99984.97;;;15.77;38.37
46291;BME280;32023;44.444;26.006;2024-01-06T09:11:38;99977.78;;;15.90;37.94
46291;BME280;32023;44.444;26.006;2024-01-06T09:14:05;99969.91;;;15.97;37.92
46291;BME280;32023;44.444;26.006;2024-01-06T09:16:33;99968.41;;;16.05;37.51
46291;BME280;32023;44.444;26.006;2024-01-06T09:19:02;99960.97;;;16.14;37.50
46291;BME280;32023;44.444;26.006;2024-01-06T09:21:28;99955.63;;;16.17;37.45
46291;BME280;32023;44.444;26.006;2024-01-06T09:23:55;99960.16;;;16.13;37.25
46291;BME280;32023;44.444;26.006;2024-01-06T09:26:25;99956.97;;;16.06;37.45
46291;BME280;32023;44.444;26.006;2024-01-06T09:28:51;99954.19;;;16.06;37.05
46291;BME280;32023;44.444;26.006;2024-01-06T09:31:27;99937.50;;;16.06;36.88
46291;BME280;32023;44.444;26.006;2024-01-06T09:33:54;99930.13;;;16.15;36.95
46291;BME280;32023;44.444;26.006;2024-01-06T09:36:20;99935.47;;;16.25;36.72
46291;BME280;32023;44.444;26.006;2024-01-06T09:38:48;99932.63;;;16.30;36.42
46291;BME280;32023;44.444;26.006;2024-01-06T09:41:14;99928.06;;;16.21;36.58
46291;BME280;32023;44.444;26.006;2024-01-06T09:43:40;99925.78;;;16.09;36.42
46291;BME280;32023;44.444;26.006;2024-01-06T09:46:15;99921.97;;;16.05;36.53
46291;BME280;32023;44.444;26.006;2024-01-06T09:48:53;99915.53;;;16.23;36.28
46291;BME280;32023;44.444;26.006;2024-01-06T09:51:23;99914.09;;;16.67;35.54
46291;BME280;32023;44.444;26.006;2024-01-06T09:54:08;99906.63;;;17.25;34.83
46291;BME280;32023;44.444;26.006;2024-01-06T09:56:34;99905.78;;;17.92;33.88
46291;BME280;32023;44.444;26.006;2024-01-06T09:59:14;99906.34;;;18.98;32.23
46291;BME280;32023;44.444;26.006;2024-01-06T10:01:50;99893.84;;;20.28;30.44
46291;BME280;32023;44.444;26.006;2024-01-06T10:04:18;99879.94;;;21.94;28.31
46291;BME280;32023;44.444;26.006;2024-01-06T10:06:46;99871.94;;;23.57;25.91
46291;BME280;32023;44.444;26.006;2024-01-06T10:09:33;99870.13;;;24.86;23.71
46291;BME280;32023;44.444;26.006;2024-01-06T10:12:07;99869.59;;;25.73;22.96
46291;BME280;32023;44.444;26.006;2024-01-06T10:14:37;99853.56;;;26.68;21.91
46291;BME280;32023;44.444;26.006;2024-01-06T10:17:06;99851.00;;;26.60;21.88
46291;BME280;32023;44.444;26.006;2024-01-06T10:19:36;99853.44;;;25.70;22.51
46291;BME280;32023;44.444;26.006;2024-01-06T10:22:05;99845.00;;;24.62;23.45
46291;BME280;32023;44.444;26.006;2024-01-06T10:24:37;99849.91;;;24.03;24.17
46291;BME280;32023;44.444;26.006;2024-01-06T10:27:09;99845.09;;;23.44;24.96
46291;BME280;32023;44.444;26.006;2024-01-06T10:29:44;99836.53;;;23.00;25.48
46291;BME280;32023;44.444;26.006;2024-01-06T10:36:01;99839.94;;;21.40;27.28
46291;BME280;32023;44.444;26.006;2024-01-06T10:38:34;99846.75;;;20.68;28.35
46291;BME280;32023;44.444;26.006;2024-01-06T10:41:06;99833.63;;;20.01;29.24
46291;BME280;32023;44.444;26.006;2024-01-06T10:43:38;99833.94;;;19.45;30.13
46291;BME280;32023;44.444;26.006;2024-01-06T10:46:07;99824.94;;;18.88;30.84
46291;BME280;32023;44.444;26.006;2024-01-06T10:48:37;99823.50;;;18.34;31.65
46291;BME280;32023;44.444;26.006;2024-01-06T10:51:09;99816.94;;;17.82;32.61
46291;BME280;32023;44.444;26.006;2024-01-06T10:53:35;99812.56;;;17.36;33.43
46291;BME280;32023;44.444;26.006;2024-01-06T10:56:04;99817.53;;;16.95;34.32
46291;BME280;32023;44.444;26.006;2024-01-06T10:58:34;99812.56;;;16.56;35.10
46291;BME280;32023;44.444;26.006;2024-01-06T11:01:06;99809.97;;;16.23;35.55
46291;BME280;32023;44.444;26.006;2024-01-06T11:03:37;99810.78;;;15.97;36.36
46291;BME280;32023;44.444;26.006;2024-01-06T11:06:05;99809.88;;;15.74;36.67
46291;BME280;32023;44.444;26.006;2024-01-06T11:08:46;99803.56;;;15.55;37.12
46291;BME280;32023;44.444;26.006;2024-01-06T11:11:21;99806.59;;;15.39;37.72
46291;BME280;32023;44.444;26.006;2024-01-06T11:14:27;99800.78;;;15.22;38.10
46291;BME280;32023;44.444;26.006;2024-01-06T11:16:58;99801.56;;;15.09;38.43
46291;BME280;32023;44.444;26.006;2024-01-06T11:22:27;99794.94;;;14.91;39.21
46291;BME280;32023;44.444;26.006;2024-01-06T11:25:05;99792.97;;;14.92;39.06
46291;BME280;32023;44.444;26.006;2024-01-06T11:27:54;99789.72;;;15.04;39.30
46291;BME280;32023;44.444;26.006;2024-01-06T11:30:25;99795.94;;;15.60;38.89
46291;BME280;32023;44.444;26.006;2024-01-06T11:33:05;99788.22;;;16.25;37.51
46291;BME280;32023;44.444;26.006;2024-01-06T11:35:38;99783.38;;;16.80;36.56
46291;BME280;32023;44.444;26.006;2024-01-06T11:38:13;99775.03;;;17.03;35.96
46291;BME280;32023;44.444;26.006;2024-01-06T11:40:41;99769.31;;;17.08;35.88
46291;BME280;32023;44.444;26.006;2024-01-06T11:43:12;99763.94;;;17.11;35.85
46291;BME280;32023;44.444;26.006;2024-01-06T11:45:41;99758.50;;;17.28;35.51
46291;BME280;32023;44.444;26.006;2024-01-06T11:48:16;99751.63;;;17.57;35.07
46291;BME280;32023;44.444;26.006;2024-01-06T11:50:43;99753.50;;;18.44;33.79
46291;BME280;32023;44.444;26.006;2024-01-06T11:53:19;99746.22;;;19.37;32.41
46291;BME280;32023;44.444;26.006;2024-01-06T11:55:49;99738.41;;;19.98;31.37
46291;BME280;32023;44.444;26.006;2024-01-06T11:58:19;99746.72;;;20.65;30.59
46291;BME280;32023;44.444;26.006;2024-01-06T12:00:57;99745.34;;;21.04;29.88
46291;BME280;32023;44.444;26.006;2024-01-06T12:03:27;99730.03;;;20.89;29.44
46291;BME280;32023;44.444;26.006;2024-01-06T12:06:00;99726.75;;;20.66;29.70
46291;BME280;32023;44.444;26.006;2024-01-06T12:08:27;99731.84;;;20.73;29.59
46291;BME280;32023;44.444;26.006;2024-01-06T12:11:02;99737.50;;;20.64;29.50
46291;BME280;32023;44.444;26.006;2024-01-06T12:13:35;99733.53;;;20.45;29.78
46291;BME280;32023;44.444;26.006;2024-01-06T12:16:02;99729.34;;;20.51;29.79
46291;BME280;32023;44.444;26.006;2024-01-06T12:18:28;99721.25;;;20.58;29.62
46291;BME280;32023;44.444;26.006;2024-01-06T12:21:04;99721.31;;;20.49;29.83
46291;BME280;32023;44.444;26.006;2024-01-06T12:23:34;99728.69;;;20.33;30.05
46291;BME280;32023;44.444;26.006;2024-01-06T12:26:01;99730.66;;;20.03;30.29
46291;BME280;32023;44.444;26.006;2024-01-06T12:28:28;99733.63;;;19.69;30.81
46291;BME280;32023;44.444;26.006;2024-01-06T12:30:55;99741.28;;;19.43;31.03
46291;BME280;32023;44.444;26.006;2024-01-06T12:33:24;99751.69;;;19.16;31.29
46291;BME280;32023;44.444;26.006;2024-01-06T12:35:50;99753.84;;;19.02;31.86
46291;BME280;32023;44.444;26.006;2024-01-06T12:38:23;99752.19;;;19.01;32.05
46291;BME280;32023;44.444;26.006;2024-01-06T12:40:53;99745.63;;;19.06;31.71
46291;BME280;32023;44.444;26.006;2024-01-06T12:43:21;99742.19;;;19.00;31.84
46291;BME280;32023;44.444;26.006;2024-01-06T12:45:52;99747.28;;;18.90;31.82
46291;BME280;32023;44.444;26.006;2024-01-06T12:48:26;99745.66;;;18.80;32.11
46291;BME280;32023;44.444;26.006;2024-01-06T12:50:52;99745.81;;;18.66;32.44
46291;BME280;32023;44.444;26.006;2024-01-06T12:53:21;99745.81;;;18.49;32.61
46291;BME280;32023;44.444;26.006;2024-01-06T12:55:49;99740.53;;;18.31;32.78
46291;BME280;32023;44.444;26.006;2024-01-06T12:58:22;99736.22;;;18.07;33.30
46291;BME280;32023;44.444;26.006;2024-01-06T13:01:14;99718.78;;;17.76;33.73
46291;BME280;32023;44.444;26.006;2024-01-06T13:03:43;99724.41;;;17.54;34.09
46291;BME280;32023;44.444;26.006;2024-01-06T13:06:10;99713.50;;;17.04;34.46
46291;BME280;32023;44.444;26.006;2024-01-06T13:08:36;99728.69;;;16.98;35.09